Time;durP1;ratioP1;P1;durP2;ratioP2;P2;SDS_P1;SDS_P2;PMS_P1;PMS_P2;Temp;Humidity;BMP_temperature;BMP_pressure;BME280_temperature;BME280_humidity;BME280_pressure;Samples;Min_cycle;Max_cycle;Signal;HPM_P1;HPM_P2
2022/10/04 00:01:08;;;;;;;10.50;5.63;;;8.80;99.90;;;;;;5075322;28;20233;-58
2022/10/04 00:03:40;;;;;;;8.73;5.63;;;8.80;99.90;;;;;;5075458;28;20205;-59
2022/10/04 00:06:15;;;;;;;8.93;5.10;;;8.70;99.90;;;;;;5074369;28;20228;-58
2022/10/04 00:08:45;;;;;;;7.80;4.97;;;8.80;99.90;;;;;;5075373;28;20208;-58
2022/10/04 00:11:20;;;;;;;10.03;5.70;;;8.80;99.90;;;;;;5075239;28;20201;-58
2022/10/04 00:13:50;;;;;;;10.80;5.50;;;8.80;99.90;;;;;;5075132;28;20212;-58
2022/10/04 00:16:28;;;;;;;8.13;5.90;;;8.80;99.90;;;;;;5074320;28;20255;-58
2022/10/04 00:19:18;;;;;;;8.30;5.60;;;8.80;99.90;;;;;;5074988;28;20216;-59
2022/10/04 00:22:11;;;;;;;7.67;5.73;;;8.70;99.90;;;;;;5074584;28;20614;-58
2022/10/04 00:25:22;;;;;;;6.73;5.03;;;8.70;99.90;;;;;;5074795;28;20216;-59
2022/10/04 00:28:15;;;;;;;11.60;6.23;;;8.70;99.90;;;;;;5074450;28;20211;-58
2022/10/04 00:30:42;;;;;;;7.93;5.40;;;8.60;99.90;;;;;;5074781;28;20277;-59
2022/10/04 00:33:09;;;;;;;7.37;5.67;;;8.60;99.90;;;;;;5074979;28;20253;-59
2022/10/04 00:35:50;;;;;;;6.50;5.07;;;8.60;99.90;;;;;;5073883;28;20248;-58
2022/10/04 00:38:25;;;;;;;7.43;5.10;;;8.60;99.90;;;;;;5074554;28;20205;-58
2022/10/04 00:40:59;;;;;;;8.63;5.17;;;8.60;99.90;;;;;;5074620;28;20311;-59
2022/10/04 00:43:32;;;;;;;7.57;5.20;;;8.40;99.90;;;;;;5074572;28;20205;-58
2022/10/04 00:46:02;;;;;;;7.27;5.83;;;8.40;99.90;;;;;;5073908;28;20232;-58
2022/10/04 00:48:41;;;;;;;7.27;5.80;;;8.30;99.90;;;;;;5074905;28;20201;-58
2022/10/04 00:51:16;;;;;;;7.37;4.77;;;8.30;99.90;;;;;;5074460;28;20204;-58
2022/10/04 00:54:01;;;;;;;7.17;5.40;;;8.30;99.90;;;;;;5074406;28;20219;-58
2022/10/04 00:56:36;;;;;;;8.33;4.90;;;8.40;99.90;;;;;;5073475;28;20229;-59
2022/10/04 00:59:32;;;;;;;7.77;5.23;;;8.40;99.90;;;;;;5074419;28;20204;-59
2022/10/04 01:02:04;;;;;;;7.33;5.10;;;8.40;99.90;;;;;;5069178;28;20655;-58
2022/10/04 01:04:39;;;;;;;8.53;4.90;;;8.40;99.90;;;;;;5074090;28;20205;-59
2022/10/04 01:07:07;;;;;;;8.03;5.33;;;8.40;99.90;;;;;;5073707;28;20587;-58
2022/10/04 01:09:41;;;;;;;7.20;4.60;;;8.40;99.90;;;;;;5074026;28;20205;-58
2022/10/04 01:12:16;;;;;;;8.90;4.90;;;8.30;99.90;;;;;;5074085;28;20282;-59
2022/10/04 01:14:53;;;;;;;10.07;5.63;;;8.30;99.90;;;;;;5073912;28;20851;-59
2022/10/04 01:17:19;;;;;;;7.03;5.07;;;8.30;99.90;;;;;;5073242;28;20259;-59
2022/10/04 01:19:52;;;;;;;9.40;5.10;;;8.30;99.90;;;;;;5074016;28;20201;-58
2022/10/04 01:22:35;;;;;;;7.50;5.40;;;8.30;99.90;;;;;;5073927;28;20652;-59
2022/10/04 01:25:01;;;;;;;9.57;5.23;;;8.30;99.90;;;;;;5074004;28;20613;-58
2022/10/04 01:27:37;;;;;;;6.03;4.70;;;8.30;99.90;;;;;;5073039;28;20232;-59
2022/10/04 01:30:08;;;;;;;10.57;5.00;;;8.30;99.90;;;;;;5074487;28;20208;-56
2022/10/04 01:32:36;;;;;;;7.10;5.00;;;8.20;99.90;;;;;;5073627;28;20236;-57
2022/10/04 01:35:04;;;;;;;6.27;4.57;;;8.20;99.90;;;;;;5073674;28;20232;-57
2022/10/04 01:37:32;;;;;;;8.40;5.27;;;8.20;99.90;;;;;;5072875;28;20207;-56
2022/10/04 01:39:59;;;;;;;7.60;4.70;;;8.20;99.90;;;;;;5073384;28;20631;-55
2022/10/04 01:42:32;;;;;;;9.17;5.73;;;8.20;99.90;;;;;;5073182;28;20225;-56
2022/10/04 01:45:07;;;;;;;8.30;4.63;;;8.20;99.90;;;;;;5073493;28;20228;-56
2022/10/04 01:47:37;;;;;;;9.67;4.90;;;8.20;99.90;;;;;;5072918;28;20212;-56
2022/10/04 01:50:08;;;;;;;6.50;4.90;;;8.10;99.90;;;;;;5073216;28;20205;-56
2022/10/04 01:52:42;;;;;;;7.23;4.70;;;8.00;99.90;;;;;;5073206;28;20201;-55
2022/10/04 01:55:14;;;;;;;7.23;4.80;;;8.00;99.90;;;;;;5073345;28;20232;-56
2022/10/04 01:57:46;;;;;;;6.47;4.60;;;7.90;99.90;;;;;;5072710;28;20209;-56
2022/10/04 02:00:14;;;;;;;9.03;5.30;;;7.90;99.90;;;;;;5073171;28;20636;-56
2022/10/04 02:02:47;;;;;;;8.10;5.00;;;7.90;99.90;;;;;;5072810;28;20224;-55
2022/10/04 02:05:17;;;;;;;6.43;4.67;;;7.90;99.90;;;;;;5072829;28;20274;-55
2022/10/04 02:07:48;;;;;;;6.73;4.37;;;7.90;99.90;;;;;;5072444;28;20201;-55
2022/10/04 02:10:19;;;;;;;6.03;4.40;;;7.80;99.90;;;;;;5073407;28;20208;-56
2022/10/04 02:12:48;;;;;;;6.00;4.20;;;7.80;99.90;;;;;;5072834;28;20601;-56
2022/10/04 02:15:18;;;;;;;5.37;4.27;;;7.70;99.90;;;;;;5072747;28;20251;-56
2022/10/04 02:17:46;;;;;;;6.00;3.83;;;7.70;99.90;;;;;;5071923;28;20564;-56
2022/10/04 02:20:16;;;;;;;7.03;4.47;;;7.60;99.90;;;;;;5072560;28;20208;-56
2022/10/04 02:22:46;;;;;;;7.77;4.37;;;7.60;99.90;;;;;;5072436;28;20221;-56
2022/10/04 02:25:15;;;;;;;6.00;4.37;;;7.60;99.90;;;;;;5072771;28;20230;-57
2022/10/04 02:27:42;;;;;;;5.10;4.20;;;7.50;99.90;;;;;;5071821;28;20205;-57
2022/10/04 02:30:11;;;;;;;5.90;4.27;;;7.50;99.90;;;;;;5072346;28;20216;-55
2022/10/04 02:32:58;;;;;;;7.30;4.30;;;7.50;99.90;;;;;;5072585;28;20208;-55
2022/10/04 02:35:28;;;;;;;8.70;4.83;;;7.60;99.90;;;;;;5072411;28;20220;-56
2022/10/04 02:38:05;;;;;;;14.10;8.87;;;7.60;99.90;;;;;;5071740;28;20201;-55
2022/10/04 02:40:39;;;;;;;12.03;4.57;;;7.70;99.90;;;;;;5072439;28;20228;-56
2022/10/04 02:43:12;;;;;;;8.33;4.33;;;7.70;99.90;;;;;;5072385;28;20704;-56
2022/10/04 02:45:45;;;;;;;8.27;6.10;;;7.70;99.90;;;;;;5072362;28;20252;-57
2022/10/04 02:48:27;;;;;;;4.80;4.00;;;7.70;99.90;;;;;;5072212;28;20665;-56
2022/10/04 02:50:58;;;;;;;5.80;4.10;;;7.70;99.90;;;;;;5072059;28;20232;-56
2022/10/04 02:53:31;;;;;;;7.40;4.03;;;7.70;99.90;;;;;;5072522;28;20572;-56
2022/10/04 02:55:58;;;;;;;5.70;3.93;;;7.70;99.90;;;;;;5071509;28;20256;-56
2022/10/04 02:58:26;;;;;;;7.40;4.20;;;7.70;99.90;;;;;;5072208;28;20209;-57
2022/10/04 03:00:57;;;;;;;7.87;4.20;;;7.80;99.90;;;;;;5072482;28;20212;-57
2022/10/04 03:03:26;;;;;;;8.47;6.07;;;7.80;99.90;;;;;;5072015;28;20200;-56
2022/10/04 03:05:57;;;;;;;6.67;4.80;;;7.80;99.90;;;;;;5071667;28;20248;-58
2022/10/04 03:08:26;;;;;;;5.47;3.50;;;7.90;99.90;;;;;;5072226;28;20213;-56
2022/10/04 03:10:53;;;;;;;5.50;4.50;;;7.90;99.90;;;;;;5072305;28;20208;-56
2022/10/04 03:13:21;;;;;;;47.87;36.57;;;7.80;99.90;;;;;;5072047;28;20209;-56
2022/10/04 03:15:49;;;;;;;22.47;18.90;;;7.80;99.90;;;;;;5070918;28;20243;-57
2022/10/04 03:18:17;;;;;;;12.63;10.70;;;7.80;99.90;;;;;;5071977;28;20208;-56
2022/10/04 03:20:45;;;;;;;8.37;6.67;;;7.80;99.90;;;;;;5071839;28;20204;-56
2022/10/04 03:23:14;;;;;;;9.50;7.20;;;7.80;99.90;;;;;;5071908;28;20564;-56
2022/10/04 03:25:48;;;;;;;6.07;4.40;;;7.80;99.90;;;;;;5071752;28;20256;-56
2022/10/04 03:28:15;;;;;;;10.77;7.03;;;7.90;99.90;;;;;;5071848;28;20200;-56
2022/10/04 03:30:44;;;;;;;15.13;10.30;;;7.80;99.90;;;;;;5071606;28;20233;-56
2022/10/04 03:33:18;;;;;;;5.27;4.40;;;7.80;99.90;;;;;;5074718;28;20208;-56
2022/10/04 03:35:47;;;;;;;8.70;5.33;;;7.80;99.90;;;;;;5075885;28;20235;-55
2022/10/04 03:38:16;;;;;;;12.83;8.03;;;7.80;99.90;;;;;;5075848;28;20753;-57
2022/10/04 03:40:52;;;;;;;5.70;5.10;;;7.80;99.90;;;;;;5075685;28;20201;-56
2022/10/04 03:43:21;;;;;;;7.73;4.27;;;7.80;99.90;;;;;;5075955;28;20994;-58
2022/10/04 03:45:49;;;;;;;10.17;6.10;;;7.80;99.90;;;;;;5075454;28;20236;-59
2022/10/04 03:48:22;;;;;;;8.67;5.20;;;7.80;99.90;;;;;;5075710;28;20240;-56
2022/10/04 03:50:49;;;;;;;9.30;5.40;;;7.90;99.90;;;;;;5076035;28;20200;-56
2022/10/04 03:53:27;;;;;;;9.87;5.80;;;7.90;99.90;;;;;;5075494;28;20211;-56
2022/10/04 03:55:56;;;;;;;8.23;5.17;;;7.80;99.90;;;;;;5074846;28;20231;-56
2022/10/04 03:58:26;;;;;;;7.07;5.17;;;7.90;99.90;;;;;;5075671;28;20208;-57
2022/10/04 04:01:05;;;;;;;4.83;4.00;;;7.90;99.90;;;;;;5075502;28;20205;-58
2022/10/04 04:03:41;;;;;;;8.23;4.20;;;7.90;99.90;;;;;;5075347;28;20197;-57
2022/10/04 04:06:14;;;;;;;5.87;4.20;;;7.90;99.90;;;;;;5074731;28;20228;-56
2022/10/04 04:08:43;;;;;;;5.90;4.67;;;7.90;99.90;;;;;;5075416;28;20218;-57
2022/10/04 04:11:20;;;;;;;6.87;4.40;;;7.90;99.90;;;;;;5075252;28;20207;-56
2022/10/04 04:13:51;;;;;;;7.17;3.83;;;7.90;99.90;;;;;;5075395;28;20216;-55
2022/10/04 04:16:19;;;;;;;6.23;3.60;;;7.90;99.90;;;;;;5074343;28;20236;-56
2022/10/04 04:18:48;;;;;;;6.83;5.30;;;7.90;99.90;;;;;;5075202;28;20299;-56
2022/10/04 04:21:19;;;;;;;7.27;4.63;;;7.90;99.90;;;;;;5075006;28;20623;-58
2022/10/04 04:23:50;;;;;;;4.90;4.20;;;7.90;99.90;;;;;;5075323;28;20209;-57
2022/10/04 04:26:26;;;;;;;6.33;3.70;;;7.90;99.90;;;;;;5074444;28;20229;-57
2022/10/04 04:28:56;;;;;;;7.53;4.10;;;7.90;99.90;;;;;;5074720;28;20731;-56
2022/10/04 04:31:26;;;;;;;5.43;3.90;;;7.90;99.90;;;;;;5075152;28;20213;-56
2022/10/04 04:33:59;;;;;;;5.53;3.80;;;7.90;99.90;;;;;;5074914;28;20204;-56
2022/10/04 04:36:27;;;;;;;5.57;4.97;;;7.90;99.90;;;;;;5074341;28;20229;-58
2022/10/04 04:41:51;;;;;;;5.63;3.80;;;7.90;99.90;;;;;;5074538;28;20362;-56
2022/10/04 04:44:19;;;;;;;3.40;3.10;;;7.90;99.90;;;;;;5074086;28;20216;-56
2022/10/04 04:46:47;;;;;;;6.10;4.00;;;7.80;99.90;;;;;;5073680;28;20237;-55
2022/10/04 04:49:16;;;;;;;7.07;3.80;;;7.80;99.90;;;;;;5074350;28;20205;-55
2022/10/04 04:51:49;;;;;;;3.73;3.13;;;7.80;99.90;;;;;;5074314;28;20227;-54
2022/10/04 04:54:17;;;;;;;4.17;3.40;;;7.80;99.90;;;;;;5074405;28;20243;-55
2022/10/04 04:56:44;;;;;;;6.70;3.43;;;7.80;99.90;;;;;;5073527;28;20743;-55
2022/10/04 04:59:13;;;;;;;7.00;3.70;;;7.80;99.90;;;;;;5074291;28;20612;-55
2022/10/04 05:01:44;;;;;;;4.50;3.40;;;7.80;99.90;;;;;;5074198;28;20692;-57
2022/10/04 05:04:18;;;;;;;5.40;3.60;;;7.90;99.90;;;;;;5074183;28;20236;-56
2022/10/04 05:06:47;;;;;;;5.17;3.90;;;7.80;99.90;;;;;;5073476;28;20261;-56
2022/10/04 05:09:23;;;;;;;5.47;3.80;;;7.70;99.90;;;;;;5074195;28;20201;-57
2022/10/04 05:11:52;;;;;;;6.13;3.83;;;7.70;99.90;;;;;;5074241;28;20263;-56
2022/10/04 05:14:21;;;;;;;11.80;8.80;;;7.70;99.90;;;;;;5074308;28;20205;-56
2022/10/04 05:16:50;;;;;;;7.90;4.80;;;7.70;99.90;;;;;;5072994;28;20327;-55
2022/10/04 05:19:21;;;;;;;4.93;3.77;;;7.70;99.90;;;;;;5073927;28;20661;-55
2022/10/04 05:21:49;;;;;;;5.33;4.17;;;7.70;99.90;;;;;;5074145;28;20263;-55
2022/10/04 05:24:22;;;;;;;4.97;3.67;;;7.50;99.90;;;;;;5074444;28;20200;-55
2022/10/04 05:26:51;;;;;;;5.33;3.60;;;7.50;99.90;;;;;;5073417;28;20224;-55
2022/10/04 05:29:22;;;;;;;6.23;3.90;;;7.50;99.90;;;;;;5073748;28;20205;-55
2022/10/04 05:31:58;;;;;;;5.90;3.43;;;7.60;99.90;;;;;;5074102;28;20205;-57
2022/10/04 05:34:27;;;;;;;5.63;3.23;;;7.70;99.90;;;;;;5073802;28;20215;-55
2022/10/04 05:37:11;;;;;;;4.57;3.73;;;7.70;99.90;;;;;;5073058;28;20685;-56
2022/10/04 05:39:44;;;;;;;8.97;3.77;;;7.80;99.90;;;;;;5073603;28;20209;-56
2022/10/04 05:42:17;;;;;;;5.03;3.23;;;7.80;99.90;;;;;;5073856;28;20229;-56
2022/10/04 05:44:51;;;;;;;6.57;3.20;;;8.00;99.90;;;;;;5073523;28;20258;-57
2022/10/04 05:47:22;;;;;;;4.17;3.30;;;8.00;99.90;;;;;;5073725;28;20232;-57
2022/10/04 05:49:51;;;;;;;5.73;3.33;;;8.20;99.90;;;;;;5073642;28;20211;-56
2022/10/04 05:52:28;;;;;;;3.93;3.30;;;8.20;99.90;;;;;;5073039;28;20213;-57
2022/10/04 05:55:26;;;;;;;4.57;3.53;;;8.30;99.90;;;;;;5073068;28;20559;-56
2022/10/04 05:58:18;;;;;;;4.00;3.60;;;8.50;99.90;;;;;;5072396;28;20216;-56
2022/10/04 06:01:09;;;;;;;6.07;3.30;;;8.60;99.90;;;;;;5073012;28;20220;-56
2022/10/04 06:03:55;;;;;;;4.60;3.47;;;8.80;99.90;;;;;;5073661;28;20799;-58
2022/10/04 06:06:30;;;;;;;6.63;3.73;;;9.00;99.90;;;;;;5072235;28;20270;-56
2022/10/04 06:09:09;;;;;;;9.87;3.40;;;9.20;99.90;;;;;;5073258;28;20205;-56
2022/10/04 06:11:50;;;;;;;8.23;4.10;;;9.30;99.90;;;;;;5073155;28;20608;-56
2022/10/04 06:14:34;;;;;;;4.63;2.97;;;9.50;99.90;;;;;;5073081;28;20249;-56
2022/10/04 06:17:24;;;;;;;5.77;3.70;;;9.70;99.90;;;;;;5071759;28;20212;-56
2022/10/04 06:20:45;;;;;;;7.00;3.53;;;9.90;99.90;;;;;;5072371;28;20236;-55
2022/10/04 06:23:15;;;;;;;5.47;3.50;;;10.10;99.90;;;;;;5005922;28;20219;-55
2022/10/04 06:25:47;;;;;;;7.60;3.60;;;10.30;99.90;;;;;;5010686;28;20230;-55
2022/10/04 06:28:18;;;;;;;5.93;3.43;;;10.40;99.90;;;;;;5049719;28;20212;-55
2022/10/04 06:31:26;;;;;;;6.67;3.60;;;10.50;99.90;;;;;;5072531;28;20603;-55
2022/10/04 06:34:16;;;;;;;4.47;3.00;;;10.70;99.90;;;;;;5072409;28;20208;-56
2022/10/04 06:37:21;;;;;;;5.73;3.60;;;10.70;99.90;;;;;;5071892;28;20260;-55
2022/10/04 06:40:17;;;;;;;6.23;3.30;;;10.60;99.90;;;;;;5010358;28;20211;-54
2022/10/04 06:42:56;;;;;;;3.93;3.30;;;10.60;99.90;;;;;;5070082;28;20235;-56
2022/10/04 06:45:36;;;;;;;10.23;3.60;;;10.60;99.90;;;;;;5072430;28;20251;-58
2022/10/04 06:48:16;;;;;;;9.17;3.47;;;10.40;99.90;;;;;;5071855;28;20209;-57
2022/10/04 06:50:49;;;;;;;6.70;3.20;;;10.40;99.90;;;;;;5072192;28;20213;-56
2022/10/04 06:53:30;;;;;;;6.07;3.63;;;10.50;99.90;;;;;;5072432;28;20295;-56
2022/10/04 06:56:24;;;;;;;10.33;4.30;;;10.70;99.90;;;;;;5072339;28;20229;-57
2022/10/04 06:59:18;;;;;;;8.37;3.80;;;10.50;99.90;;;;;;5072045;28;20201;-56
2022/10/04 07:01:50;;;;;;;6.60;3.53;;;10.30;99.90;;;;;;5070019;28;20674;-57
2022/10/04 07:04:25;;;;;;;6.00;3.47;;;10.40;99.90;;;;;;5072666;28;20209;-58
2022/10/04 07:07:22;;;;;;;5.77;4.07;;;10.40;99.90;;;;;;5071306;28;20262;-58
2022/10/04 07:09:52;;;;;;;5.33;3.83;;;10.30;99.90;;;;;;5073579;28;20278;-57
2022/10/04 07:12:19;;;;;;;6.77;3.53;;;10.20;99.90;;;;;;5072001;28;20200;-57
2022/10/04 07:14:50;;;;;;;7.93;3.67;;;10.50;99.90;;;;;;5071936;28;20644;-57
2022/10/04 07:17:24;;;;;;;6.80;4.03;;;10.80;99.90;;;;;;5071803;28;20209;-58
2022/10/04 07:19:53;;;;;;;6.90;3.33;;;11.20;99.90;;;;;;5072444;28;20627;-57
2022/10/04 07:22:29;;;;;;;4.70;3.30;;;11.40;99.90;;;;;;5072267;28;20224;-57
2022/10/04 07:25:15;;;;;;;9.17;3.10;;;11.70;99.90;;;;;;5072748;28;20224;-57
2022/10/04 07:29:19;;;;;;;7.33;2.60;;;12.00;99.90;;;;;;5071625;28;20208;-57
2022/10/04 07:30:44;;;;;;;7.70;2.90;;;12.30;99.90;;;;;;5072076;28;20208;-59
2022/10/04 07:33:17;;;;;;;4.97;2.83;;;12.50;99.90;;;;;;5072200;28;20200;-59
2022/10/04 07:35:48;;;;;;;7.33;3.27;;;12.70;99.90;;;;;;5072011;28;20229;-59
2022/10/04 07:38:23;;;;;;;5.30;3.20;;;12.70;99.90;;;;;;5071372;28;20665;-59
2022/10/04 07:41:02;;;;;;;4.73;2.87;;;12.60;99.90;;;;;;5072203;28;20271;-60
2022/10/04 07:43:32;;;;;;;4.90;2.80;;;12.50;99.90;;;;;;5071874;28;20692;-59
2022/10/04 07:46:04;;;;;;;4.67;3.03;;;12.40;99.90;;;;;;5071883;28;20243;-59
2022/10/04 07:48:31;;;;;;;4.80;3.30;;;12.30;99.90;;;;;;5071293;28;20215;-59
2022/10/04 07:51:08;;;;;;;6.97;3.20;;;12.20;99.90;;;;;;5072090;28;20200;-59
2022/10/04 07:53:43;;;;;;;4.13;3.07;;;12.30;99.90;;;;;;5072066;28;20201;-59
2022/10/04 07:56:13;;;;;;;4.63;2.80;;;12.70;99.90;;;;;;5072004;28;20224;-59
2022/10/04 07:58:50;;;;;;;8.57;5.00;;;13.00;99.90;;;;;;5072620;28;20554;-59
2022/10/04 08:01:26;;;;;;;7.37;3.83;;;13.50;99.90;;;;;;5072763;28;20205;-59
2022/10/04 08:04:11;;;;;;;6.13;2.73;;;13.80;99.90;;;;;;5072715;28;20729;-61
2022/10/04 08:06:42;;;;;;;6.37;3.20;;;14.10;99.90;;;;;;5071839;28;20228;-60
2022/10/04 08:09:28;;;;;;;6.30;2.90;;;14.50;99.90;;;;;;5072838;28;20201;-59
2022/10/04 08:12:06;;;;;;;4.50;3.03;;;14.70;99.90;;;;;;5072155;28;20691;-60
2022/10/04 08:14:49;;;;;;;5.63;3.20;;;15.00;99.90;;;;;;5072458;28;20197;-60
2022/10/04 08:17:27;;;;;;;29.17;21.30;;;15.20;99.90;;;;;;5071865;28;20300;-60
2022/10/04 08:20:02;;;;;;;9.27;6.40;;;15.40;99.90;;;;;;5074407;28;20208;-60
2022/10/04 08:22:39;;;;;;;9.33;4.70;;;15.60;99.90;;;;;;5074952;28;20204;-60
2022/10/04 08:25:18;;;;;;;3.73;2.50;;;15.90;99.90;;;;;;5075343;28;20232;-60
2022/10/04 08:30:57;;;;;;;7.03;2.90;;;16.40;99.90;;;;;;5075254;28;20246;-60
2022/10/04 08:33:43;;;;;;;5.90;2.60;;;16.60;99.90;;;;;;5075380;28;20209;-60
2022/10/04 08:36:22;;;;;;;4.10;2.38;;;16.70;99.90;;;;;;5075012;28;20232;-59
2022/10/04 08:38:54;;;;;;;4.30;2.27;;;16.70;99.90;;;;;;5074920;28;20204;-60
2022/10/04 08:42:08;;;;;;;7.40;2.10;;;16.70;99.90;;;;;;5074832;28;20691;-60
2022/10/04 08:45:05;;;;;;;4.53;2.50;;;16.70;99.90;;;;;;5075371;28;20244;-60
2022/10/04 08:48:10;;;;;;;8.60;4.68;;;16.50;99.90;;;;;;5074176;28;20236;-59
2022/10/04 08:51:09;;;;;;;12.10;3.30;;;16.60;99.90;;;;;;5074597;28;20239;-60
2022/10/04 08:54:22;;;;;;;6.55;2.00;;;16.70;99.90;;;;;;5074375;28;20617;-61
2022/10/04 08:57:14;;;;;;;6.68;2.35;;;16.50;99.90;;;;;;5073651;28;20311;-60
2022/10/04 09:00:11;;;;;;;4.53;2.40;;;16.30;99.90;;;;;;5074405;28;20213;-60
2022/10/04 09:03:25;;;;;;;7.32;2.65;;;16.20;99.90;;;;;;5074150;28;20258;-60
2022/10/04 09:05:58;;;;;;;5.60;1.73;;;16.30;99.90;;;;;;5074190;28;20672;-60
2022/10/04 09:09:16;;;;;;;6.40;2.72;;;16.40;99.90;;;;;;5073764;28;20205;-60
2022/10/04 09:11:59;;;;;;;8.47;2.97;;;16.40;99.90;;;;;;5074295;28;20212;-60
2022/10/04 09:14:50;;;;;;;3.17;1.97;;;16.40;99.90;;;;;;5073902;28;20661;-60
2022/10/04 09:17:21;;;;;;;7.03;2.88;;;16.60;99.90;;;;;;5073191;28;20295;-59
2022/10/04 09:19:55;;;;;;;7.23;2.77;;;16.80;99.90;;;;;;5073856;28;20208;-61
2022/10/04 09:22:48;;;;;;;7.38;2.67;;;17.00;99.90;;;;;;5073974;28;20668;-61
2022/10/04 09:25:30;;;;;;;4.90;2.70;;;17.20;99.90;;;;;;5073960;28;20240;-59
2022/10/04 09:28:24;;;;;;;3.88;2.30;;;17.40;99.90;;;;;;5073476;28;20239;-61
2022/10/04 09:31:10;;;;;;;5.22;2.20;;;17.70;99.90;;;;;;5073724;28;20327;-59
2022/10/04 09:33:59;;;;;;;5.45;2.30;;;17.80;99.90;;;;;;5074174;28;20201;-60
2022/10/04 09:36:42;;;;;;;4.55;1.98;;;17.80;99.90;;;;;;5074322;28;20225;-60
2022/10/04 09:39:25;;;;;;;4.70;1.85;;;17.90;99.90;;;;;;5075164;28;20215;-61
2022/10/04 09:42:15;;;;;;;6.00;2.05;;;18.10;99.90;;;;;;5074693;28;20205;-60
2022/10/04 09:45:04;;;;;;;6.35;2.35;;;18.20;99.90;;;;;;5060761;28;20224;-62
2022/10/04 09:47:44;;;;;;;4.28;1.83;;;18.30;99.90;;;;;;5072589;28;20643;-60
2022/10/04 09:50:38;;;;;;;6.32;2.10;;;18.50;99.90;;;;;;5073622;28;20304;-61
2022/10/04 09:53:31;;;;;;;2.20;1.52;;;18.70;99.90;;;;;;5073333;28;20501;-61
2022/10/04 09:56:28;;;;;;;2.53;1.60;;;18.80;99.90;;;;;;5065181;28;20225;-61
2022/10/04 09:59:20;;;;;;;4.60;1.63;;;18.90;99.90;;;;;;5057774;28;20209;-61
2022/10/04 10:02:27;;;;;;;4.13;1.73;;;19.00;99.90;;;;;;5073110;28;20209;-61
2022/10/04 10:05:15;;;;;;;2.83;1.50;;;19.00;99.90;;;;;;5072982;28;20233;-61
2022/10/04 10:07:51;;;;;;;3.28;1.70;;;18.90;99.90;;;;;;5072423;28;20673;-61
2022/10/04 10:13:52;;;;;;;5.00;1.63;;;18.80;99.90;;;;;;5073219;28;20203;-61
2022/10/04 10:16:33;;;;;;;3.67;1.60;;;19.00;99.90;;;;;;5072841;28;20356;-62
2022/10/04 10:19:16;;;;;;;6.13;1.80;;;19.10;99.90;;;;;;5072509;28;20201;-62
2022/10/04 10:21:57;;;;;;;3.60;1.67;;;19.00;99.90;;;;;;5072847;28;20205;-62
2022/10/04 10:24:46;;;;;;;4.15;1.65;;;19.10;99.90;;;;;;5072726;28;20224;-60
2022/10/04 10:27:40;;;;;;;6.10;1.80;;;19.10;99.90;;;;;;5071871;28;20213;-62
2022/10/04 10:30:25;;;;;;;2.92;1.58;;;19.10;99.90;;;;;;5072475;28;20722;-61
2022/10/04 10:33:37;;;;;;;3.60;1.42;;;18.90;99.90;;;;;;5072871;28;20663;-61
2022/10/04 10:36:29;;;;;;;4.32;1.73;;;18.70;99.90;;;;;;5062268;28;20724;-62
2022/10/04 10:39:36;;;;;;;4.18;1.50;;;18.50;99.90;;;;;;5072578;28;20216;-61
2022/10/04 10:42:39;;;;;;;3.55;1.50;;;18.70;99.90;;;;;;5071781;28;20208;-61
2022/10/04 10:45:20;;;;;;;2.42;1.50;;;18.80;99.90;;;;;;5072363;28;20232;-61
2022/10/04 10:47:54;;;;;;;4.57;2.05;;;18.80;99.90;;;;;;5071899;28;20709;-61
2022/10/04 10:51:01;;;;;;;3.17;1.50;;;18.80;99.90;;;;;;5072616;28;20205;-62
2022/10/04 10:54:04;;;;;;;4.88;1.63;;;18.80;99.90;;;;;;5072442;28;20254;-61
2022/10/04 10:56:56;;;;;;;2.90;1.75;;;18.70;99.90;;;;;;5072034;28;20232;-61
2022/10/04 11:00:11;;;;;;;4.68;1.75;;;18.70;99.90;;;;;;5072270;28;20205;-61
2022/10/04 11:03:28;;;;;;;4.13;1.80;;;18.80;99.90;;;;;;5071943;28;20233;-62
2022/10/04 11:06:13;;;;;;;3.00;1.48;;;19.00;99.90;;;;;;5072141;28;20238;-61
2022/10/04 11:09:08;;;;;;;4.35;1.73;;;19.10;99.90;;;;;;5071462;28;20640;-61
2022/10/04 11:11:50;;;;;;;7.50;2.58;;;19.10;99.90;;;;;;5072281;28;20219;-60
2022/10/04 11:14:37;;;;;;;3.80;1.80;;;19.20;99.90;;;;;;5072329;28;20691;-63
2022/10/04 11:18:00;;;;;;;4.78;1.75;;;19.30;99.90;;;;;;5071380;28;20220;-61
2022/10/04 11:21:24;;;;;;;2.45;1.50;;;19.50;99.90;;;;;;5029756;28;20707;-61
2022/10/04 11:24:18;;;;;;;4.32;1.75;;;19.60;99.90;;;;;;5009945;28;20227;-61
2022/10/04 11:27:11;;;;;;;4.63;1.70;;;19.60;99.90;;;;;;5009129;28;20235;-61
2022/10/04 11:29:57;;;;;;;4.60;1.63;;;19.80;99.90;;;;;;5069935;28;20539;-61
2022/10/04 11:33:10;;;;;;;3.75;1.35;;;19.80;99.90;;;;;;5072207;28;20205;-61
2022/10/04 11:36:02;;;;;;;4.80;1.83;;;19.90;99.90;;;;;;5071954;28;20224;-61
2022/10/04 11:38:47;;;;;;;3.92;1.73;;;20.00;99.90;;;;;;5071379;28;20213;-61
2022/10/04 11:41:18;;;;;;;5.65;1.77;;;20.20;99.90;;;;;;5072257;28;20211;-61
2022/10/04 11:44:17;;;;;;;3.50;1.60;;;20.30;99.90;;;;;;5072018;28;20232;-61
2022/10/04 11:46:52;;;;;;;3.88;1.65;;;20.30;99.90;;;;;;5071663;28;20229;-60
2022/10/04 11:49:43;;;;;;;6.07;2.53;;;20.50;99.90;;;;;;5071984;28;20207;-60
2022/10/04 11:52:29;;;;;;;3.50;1.60;;;20.50;99.90;;;;;;5072061;28;20208;-60
2022/10/04 11:55:20;;;;;;;2.30;1.40;;;20.70;99.90;;;;;;5075799;28;20228;-61
2022/10/04 11:57:51;;;;;;;2.50;1.50;;;20.80;99.90;;;;;;5075173;28;20310;-60
2022/10/04 12:00:21;;;;;;;5.07;1.83;;;21.10;99.90;;;;;;5075661;28;20240;-60
2022/10/04 12:03:17;;;;;;;4.63;1.55;;;21.30;99.90;;;;;;5075508;28;20213;-60
2022/10/04 12:06:00;;;;;;;3.15;1.40;;;21.50;99.90;;;;;;5075555;28;20216;-62
2022/10/04 12:08:41;;;;;;;4.18;1.52;;;21.60;99.90;;;;;;5075015;28;20209;-60
2022/10/04 12:14:55;;;;;;;3.88;1.50;;;21.70;99.90;;;;;;5075280;28;20615;-60
2022/10/04 12:17:54;;;;;;;1.92;1.27;;;21.80;99.90;;;;;;5074893;28;20215;-60
2022/10/04 12:20:55;;;;;;;2.53;1.38;;;21.70;99.90;;;;;;5075217;28;20209;-60
2022/10/04 12:23:58;;;;;;;3.53;1.27;;;21.50;99.90;;;;;;5075321;28;20201;-61
2022/10/04 12:27:16;;;;;;;4.38;1.83;;;21.50;99.90;;;;;;5042691;28;20225;-61
2022/10/04 12:30:20;;;;;;;2.72;1.33;;;21.60;99.90;;;;;;5075200;28;20224;-59
2022/10/04 12:33:01;;;;;;;4.68;2.00;;;21.50;99.90;;;;;;5074800;28;20710;-60
2022/10/04 12:35:43;;;;;;;4.25;1.40;;;21.40;99.90;;;;;;5074802;28;20248;-61
2022/10/04 12:38:27;;;;;;;2.60;1.25;;;21.30;99.90;;;;;;5074162;28;20209;-60
2022/10/04 12:41:00;;;;;;;3.17;1.40;;;21.20;99.90;;;;;;5074597;28;20588;-61
2022/10/04 12:43:37;;;;;;;3.33;1.15;;;21.20;99.90;;;;;;5074610;28;20212;-61
2022/10/04 12:46:16;;;;;;;3.55;1.40;;;20.90;99.90;;;;;;5074728;28;20217;-61
2022/10/04 12:48:53;;;;;;;4.13;1.60;;;20.80;99.90;;;;;;5073805;28;20668;-61
2022/10/04 12:51:34;;;;;;;6.15;1.45;;;20.80;99.90;;;;;;5074626;28;20212;-61
2022/10/04 12:54:12;;;;;;;3.22;1.40;;;20.90;99.90;;;;;;5074354;28;20600;-60
2022/10/04 12:56:47;;;;;;;2.90;1.48;;;21.00;99.90;;;;;;5074377;28;20225;-60
2022/10/04 12:59:35;;;;;;;2.72;1.17;;;21.10;99.90;;;;;;5074700;28;20215;-60
2022/10/04 13:02:12;;;;;;;3.42;1.30;;;21.20;99.90;;;;;;5074470;28;20250;-57
2022/10/04 13:04:45;;;;;;;2.30;1.20;;;21.30;99.90;;;;;;5073543;28;20221;-59
2022/10/04 13:07:36;;;;;;;4.35;1.38;;;21.40;99.90;;;;;;5074040;28;20209;-60
2022/10/04 13:10:28;;;;;;;3.60;2.20;;;21.60;99.90;;;;;;5074372;28;20259;-59
2022/10/04 13:13:18;;;;;;;4.13;1.67;;;21.60;99.90;;;;;;5074177;28;20201;-60
2022/10/04 13:15:54;;;;;;;2.20;1.10;;;21.70;99.90;;;;;;5073935;28;20228;-59
2022/10/04 13:18:27;;;;;;;4.32;2.88;;;21.80;99.90;;;;;;5073618;28;20276;-59
2022/10/04 13:21:00;;;;;;;3.47;1.23;;;21.90;99.90;;;;;;5074281;28;20220;-61
2022/10/04 13:23:42;;;;;;;1.67;1.02;;;22.00;99.90;;;;;;5074122;28;20231;-60
2022/10/04 13:26:38;;;;;;;2.42;1.58;;;22.10;99.90;;;;;;5073868;28;20225;-60
2022/10/04 13:29:13;;;;;;;2.58;1.48;;;22.20;99.20;;;;;;5074063;28;20205;-60
2022/10/04 13:31:47;;;;;;;3.75;1.42;;;22.20;99.10;;;;;;5074237;28;20200;-59
2022/10/04 13:34:25;;;;;;;3.95;1.15;;;22.20;98.70;;;;;;5074236;28;20240;-61
2022/10/04 13:37:16;;;;;;;2.42;1.30;;;22.10;99.50;;;;;;5072772;28;20212;-60
2022/10/04 13:39:59;;;;;;;3.03;1.50;;;22.10;99.70;;;;;;5073625;28;20200;-59
2022/10/04 13:42:42;;;;;;;3.88;1.35;;;22.10;99.30;;;;;;5073813;28;20220;-59
2022/10/04 13:45:48;;;;;;;3.17;1.60;;;22.10;99.00;;;;;;5073292;28;20616;-60
2022/10/04 13:48:37;;;;;;;3.38;1.50;;;22.10;98.90;;;;;;5010474;28;20206;-60
2022/10/04 13:51:28;;;;;;;4.32;1.20;;;22.20;99.00;;;;;;5072358;28;20240;-60
2022/10/04 13:57:00;;;;;;;3.00;1.60;;;22.00;99.00;;;;;;5072390;28;20218;-60
2022/10/04 13:59:40;;;;;;;2.70;1.42;;;22.00;99.80;;;;;;5073311;28;20212;-60
2022/10/04 14:02:36;;;;;;;4.35;1.88;;;22.00;99.50;;;;;;5073245;28;20205;-60
2022/10/04 14:05:31;;;;;;;2.72;1.52;;;22.00;99.70;;;;;;5072976;28;20233;-60
2022/10/04 14:08:21;;;;;;;3.33;1.80;;;22.00;99.40;;;;;;5069960;28;20231;-60
2022/10/04 14:11:16;;;;;;;3.47;1.42;;;21.90;98.80;;;;;;5072956;28;20240;-60
2022/10/04 14:14:22;;;;;;;4.40;1.40;;;21.70;99.60;;;;;;5072988;28;20204;-59